createdAt,value
2022-07-26T00:01:39.755Z,25.33
2022-07-26T00:04:06.571Z,25.46
2022-07-26T00:06:33.649Z,25.05
2022-07-26T00:09:00.425Z,25.56
2022-07-26T00:11:28.856Z,25.26
2022-07-26T00:13:55.687Z,25.18
2022-07-26T00:16:22.490Z,25.16
2022-07-26T00:18:49.310Z,25.55
2022-07-26T00:21:16.224Z,25.74
2022-07-26T00:23:43.185Z,25.85
2022-07-26T00:26:09.951Z,25.39
2022-07-26T00:28:36.876Z,25.84
2022-07-26T00:31:04.032Z,25.11
2022-07-26T00:33:30.952Z,25.23
2022-07-26T00:35:57.616Z,25.81
2022-07-26T00:38:24.563Z,25.69
2022-07-26T00:40:51.319Z,25.32
2022-07-26T00:43:18.568Z,24.95
2022-07-26T00:45:45.400Z,25.23
2022-07-26T00:48:12.130Z,25.34
2022-07-26T00:50:38.858Z,25.00
2022-07-26T00:53:05.752Z,25.32
2022-07-26T00:55:32.878Z,25.50
2022-07-26T00:58:01.305Z,25.38
2022-07-26T01:00:28.616Z,25.05
2022-07-26T01:02:56.678Z,25.16
2022-07-26T01:05:24.452Z,25.36
2022-07-26T01:07:51.621Z,24.69
2022-07-26T01:10:18.438Z,25.40
2022-07-26T01:12:45.532Z,25.11
2022-07-26T01:15:14.084Z,24.85
2022-07-26T01:17:41.346Z,25.03
2022-07-26T01:20:10.266Z,25.20
2022-07-26T01:22:37.429Z,24.98
2022-07-26T01:25:05.069Z,24.79
2022-07-26T01:27:34.121Z,25.21
2022-07-26T01:30:01.055Z,24.77
2022-07-26T01:32:27.774Z,24.23
2022-07-26T01:34:54.410Z,25.22
2022-07-26T01:37:21.176Z,25.18
2022-07-26T01:39:47.822Z,25.23
2022-07-26T01:42:14.745Z,24.95
2022-07-26T01:44:41.369Z,24.63
2022-07-26T01:47:08.212Z,24.89
2022-07-26T01:49:34.972Z,25.29
2022-07-26T01:52:01.736Z,24.97
2022-07-26T01:54:29.247Z,25.15
2022-07-26T01:56:56.007Z,25.20
2022-07-26T01:59:22.737Z,24.92
2022-07-26T02:01:49.503Z,24.35
2022-07-26T02:04:34.864Z,25.03
2022-07-26T02:07:03.310Z,24.52
2022-07-26T02:09:33.521Z,24.19
2022-07-26T02:12:07.196Z,24.64
2022-07-26T02:14:33.888Z,24.54
2022-07-26T02:17:00.575Z,24.64
2022-07-26T02:19:31.664Z,24.60
2022-07-26T02:21:59.335Z,24.66
2022-07-26T02:24:29.079Z,24.54
2022-07-26T02:27:00.331Z,24.16
2022-07-26T02:29:28.241Z,24.54
2022-07-26T02:31:56.046Z,24.91
2022-07-26T02:34:22.854Z,25.02
2022-07-26T02:36:49.614Z,24.49
2022-07-26T02:39:16.573Z,24.72
2022-07-26T02:41:43.394Z,24.69
2022-07-26T02:44:10.508Z,24.83
2022-07-26T02:46:37.878Z,24.87
2022-07-26T02:49:05.132Z,24.92
2022-07-26T02:51:31.972Z,24.29
2022-07-26T02:53:58.851Z,24.48
2022-07-26T02:56:25.586Z,24.56
2022-07-26T02:58:52.409Z,24.81
2022-07-26T03:01:19.185Z,24.58
2022-07-26T03:03:50.233Z,24.67
2022-07-26T03:06:17.711Z,23.93
2022-07-26T03:08:44.411Z,24.32
2022-07-26T03:11:12.314Z,24.22
2022-07-26T03:13:39.563Z,24.51
2022-07-26T03:16:07.943Z,24.90
2022-07-26T03:18:34.659Z,24.69
2022-07-26T03:21:02.163Z,24.31
2022-07-26T03:23:33.209Z,24.76
2022-07-26T03:26:01.635Z,25.07
2022-07-26T03:28:34.972Z,24.42
2022-07-26T03:31:02.330Z,24.63
2022-07-26T03:33:30.256Z,24.62
2022-07-26T03:35:57.155Z,24.62
2022-07-26T03:38:24.198Z,24.82
2022-07-26T03:40:51.180Z,24.63
2022-07-26T03:43:22.962Z,24.52
2022-07-26T03:45:50.654Z,24.44
2022-07-26T03:48:17.590Z,24.55
2022-07-26T03:50:44.473Z,24.63
2022-07-26T03:53:11.130Z,24.85
2022-07-26T03:55:56.406Z,24.75
2022-07-26T03:58:23.105Z,24.73
2022-07-26T04:00:49.895Z,24.73
2022-07-26T04:03:16.671Z,24.29
2022-07-26T04:05:48.836Z,24.52
2022-07-26T04:08:16.302Z,24.61
2022-07-26T04:10:52.824Z,24.63
2022-07-26T04:13:20.110Z,24.58
2022-07-26T04:15:47.228Z,24.25
2022-07-26T04:18:16.836Z,24.17
2022-07-26T04:20:44.281Z,23.93
2022-07-26T04:23:12.491Z,24.27
2022-07-26T04:25:40.904Z,24.52
2022-07-26T04:28:09.024Z,24.09
2022-07-26T04:30:35.941Z,23.99
2022-07-26T04:33:02.922Z,24.05
2022-07-26T04:35:29.584Z,23.89
2022-07-26T04:37:56.324Z,23.98
2022-07-26T04:40:23.992Z,23.62
2022-07-26T04:42:52.174Z,23.30
2022-07-26T04:45:19.524Z,23.65
2022-07-26T04:47:50.272Z,23.65
2022-07-26T04:50:18.904Z,23.35
2022-07-26T04:52:46.384Z,23.07
2022-07-26T04:55:13.790Z,23.80
2022-07-26T04:57:41.053Z,24.28
2022-07-26T05:00:21.293Z,23.74
2022-07-26T05:02:49.633Z,24.00
2022-07-26T05:05:16.428Z,24.14
2022-07-26T05:07:45.058Z,24.13
2022-07-26T05:28:08.985Z,24.16
2022-07-26T05:35:18.799Z,24.15
2022-07-26T05:37:45.544Z,23.35
2022-07-26T05:40:12.903Z,24.01
2022-07-26T05:42:39.722Z,24.03
2022-07-26T05:45:07.435Z,23.79
2022-07-26T05:47:34.372Z,24.01
2022-07-26T05:50:01.214Z,23.72
2022-07-26T05:52:27.860Z,24.21
2022-07-26T05:54:54.680Z,24.40
2022-07-26T05:57:21.363Z,24.53
2022-07-26T05:59:48.065Z,24.30
2022-07-26T06:02:15.061Z,24.57
2022-07-26T06:04:41.917Z,23.70
2022-07-26T06:07:08.809Z,24.37
2022-07-26T06:09:35.392Z,23.75
2022-07-26T06:12:02.094Z,24.29
2022-07-26T06:14:28.770Z,24.02
2022-07-26T06:16:55.731Z,24.05
2022-07-26T06:19:22.683Z,24.37
2022-07-26T06:21:49.419Z,24.08
2022-07-26T06:24:16.252Z,23.91
2022-07-26T06:26:43.000Z,23.88
2022-07-26T06:29:09.664Z,24.25
2022-07-26T06:31:36.444Z,24.64
2022-07-26T06:34:03.370Z,24.92
2022-07-26T06:36:30.995Z,25.01
2022-07-26T06:38:58.306Z,24.91
2022-07-26T06:41:25.132Z,25.05
2022-07-26T06:43:54.279Z,25.30
2022-07-26T06:46:21.699Z,25.08
2022-07-26T06:48:52.815Z,25.69
2022-07-26T06:51:23.729Z,25.18
2022-07-26T06:53:50.505Z,25.27
2022-07-26T06:56:17.945Z,25.11
2022-07-26T06:58:45.270Z,25.33
2022-07-26T07:01:12.086Z,25.02
2022-07-26T07:03:38.981Z,24.51
2022-07-26T07:06:05.889Z,24.59
2022-07-26T07:08:32.762Z,24.75
2022-07-26T07:10:59.743Z,24.78
2022-07-26T07:13:28.550Z,24.39
2022-07-26T07:15:55.195Z,24.34
2022-07-26T07:18:21.880Z,23.85
2022-07-26T07:20:48.485Z,24.00
2022-07-26T07:23:15.219Z,24.41
2022-07-26T07:25:41.825Z,24.32
2022-07-26T07:28:11.725Z,24.89
2022-07-26T07:30:38.451Z,25.64
2022-07-26T07:33:05.384Z,25.50
2022-07-26T07:35:32.276Z,25.47
2022-07-26T07:38:00.335Z,25.15
2022-07-26T07:40:27.028Z,25.67
2022-07-26T07:42:57.062Z,25.61
2022-07-26T07:45:23.889Z,25.65
2022-07-26T07:47:50.715Z,25.25
2022-07-26T07:50:17.412Z,25.18
2022-07-26T07:52:44.912Z,25.17
2022-07-26T07:55:40.061Z,24.58
2022-07-26T07:57:58.215Z,24.02
2022-07-26T08:00:27.415Z,23.90
2022-07-26T08:02:55.001Z,23.60
2022-07-26T08:05:21.847Z,24.10
2022-07-26T08:07:49.846Z,24.08
2022-07-26T08:10:19.748Z,24.08
2022-07-26T08:12:46.571Z,24.65
2022-07-26T08:15:18.227Z,25.49
2022-07-26T08:17:51.047Z,25.79
2022-07-26T08:20:20.880Z,26.07
2022-07-26T08:22:50.816Z,26.99
2022-07-26T08:25:17.456Z,26.71
2022-07-26T08:27:55.031Z,26.53
2022-07-26T08:30:29.888Z,26.15
2022-07-26T08:32:56.681Z,26.11
2022-07-26T08:35:23.364Z,26.37
2022-07-26T08:37:50.039Z,26.05
2022-07-26T08:40:17.124Z,25.76
2022-07-26T08:42:55.210Z,25.37
2022-07-26T08:45:27.496Z,24.95
2022-07-26T08:48:16.585Z,24.55
2022-07-26T08:50:41.621Z,24.72
2022-07-26T08:53:09.667Z,24.50
2022-07-26T08:56:04.273Z,24.74
2022-07-26T08:58:24.120Z,24.90
2022-07-26T09:01:07.031Z,26.27
2022-07-26T09:03:33.865Z,27.01
2022-07-26T09:06:15.918Z,27.63
2022-07-26T09:08:44.044Z,26.85
2022-07-26T09:11:31.154Z,26.31
2022-07-26T09:14:04.055Z,26.23
2022-07-26T09:16:34.044Z,25.99
2022-07-26T09:19:23.575Z,25.86
2022-07-26T09:21:51.038Z,25.73
2022-07-26T09:24:34.506Z,25.43
2022-07-26T09:27:03.041Z,25.36
2022-07-26T09:29:30.111Z,25.21
2022-07-26T09:32:23.705Z,25.11
2022-07-26T09:34:59.168Z,25.69
2022-07-26T09:37:36.858Z,26.09
2022-07-26T09:40:12.027Z,25.91
2022-07-26T09:42:53.366Z,25.80
2022-07-26T09:45:20.492Z,25.11
2022-07-26T09:47:47.267Z,25.23
2022-07-26T09:50:18.546Z,24.97
2022-07-26T09:53:03.186Z,24.77
2022-07-26T09:55:40.829Z,24.69
2022-07-26T09:58:16.649Z,26.09
2022-07-26T10:00:43.898Z,26.53
2022-07-26T10:03:11.362Z,26.34
2022-07-26T10:05:38.758Z,25.74
2022-07-26T10:08:06.443Z,26.26
2022-07-26T10:10:37.103Z,27.15
2022-07-26T10:13:05.251Z,27.48
2022-07-26T10:15:37.926Z,27.13
2022-07-26T10:18:06.733Z,26.84
2022-07-26T10:20:40.142Z,25.95
2022-07-26T10:23:36.358Z,25.63
2022-07-26T10:26:05.750Z,25.36
2022-07-26T10:28:35.463Z,25.69
2022-07-26T10:31:20.353Z,25.94
2022-07-26T10:33:52.914Z,26.86
2022-07-26T10:36:32.056Z,27.12
2022-07-26T10:38:59.772Z,27.37
2022-07-26T10:41:42.952Z,27.84
2022-07-26T10:44:15.599Z,27.02
2022-07-26T10:46:57.228Z,26.19
2022-07-26T10:49:59.638Z,26.29
2022-07-26T10:52:29.571Z,26.33
2022-07-26T10:54:59.110Z,26.69
2022-07-26T10:57:28.306Z,26.41
2022-07-26T10:59:59.265Z,26.27
2022-07-26T11:02:29.103Z,26.76
2022-07-26T11:05:13.087Z,26.58
2022-07-26T11:07:48.905Z,27.01
2022-07-26T11:10:15.715Z,26.85
2022-07-26T11:12:42.523Z,27.03
2022-07-26T11:15:17.824Z,27.67
2022-07-26T11:17:44.635Z,27.32
2022-07-26T11:20:11.716Z,27.04
2022-07-26T11:22:38.421Z,26.51
2022-07-26T11:25:07.654Z,26.20
2022-07-26T11:27:34.284Z,25.77
2022-07-26T11:30:07.706Z,25.85
2022-07-26T11:32:35.348Z,26.30
2022-07-26T11:35:06.749Z,26.68
2022-07-26T11:37:33.549Z,26.89
2022-07-26T11:40:00.260Z,27.37
2022-07-26T11:42:26.981Z,27.30
2022-07-26T11:44:54.183Z,27.24
2022-07-26T11:47:25.231Z,26.87
2022-07-26T11:50:13.944Z,26.91
2022-07-26T11:52:41.187Z,26.25
2022-07-26T11:55:08.538Z,25.98
2022-07-26T11:57:35.232Z,26.82
2022-07-26T12:00:02.485Z,26.70
2022-07-26T12:02:38.286Z,26.24
2022-07-26T12:05:20.260Z,25.73
2022-07-26T12:08:03.911Z,26.31
2022-07-26T12:10:30.921Z,26.08
2022-07-26T12:13:16.483Z,26.29
2022-07-26T12:15:48.727Z,27.07
2022-07-26T12:18:23.581Z,26.68
2022-07-26T12:21:06.196Z,25.89
2022-07-26T12:23:44.870Z,26.50
2022-07-26T12:26:26.291Z,25.81
2022-07-26T12:28:54.474Z,25.50
2022-07-26T12:31:32.365Z,25.66
2022-07-26T12:33:59.503Z,25.75
2022-07-26T12:36:29.084Z,25.41
2022-07-26T12:38:58.791Z,25.46
2022-07-26T12:41:36.812Z,26.11
2022-07-26T12:44:05.340Z,25.81
2022-07-26T12:46:33.916Z,26.78
2022-07-26T12:49:01.236Z,27.07
2022-07-26T12:51:28.369Z,26.37
2022-07-26T12:53:55.234Z,26.00
2022-07-26T12:56:22.298Z,25.73
2022-07-26T12:58:49.033Z,26.00
2022-07-26T13:01:16.857Z,25.80
2022-07-26T13:03:44.310Z,25.84
2022-07-26T13:06:11.161Z,25.65
2022-07-26T13:08:38.012Z,25.85
2022-07-26T13:11:04.741Z,26.06
2022-07-26T13:13:31.433Z,25.19
2022-07-26T13:15:58.720Z,25.56
2022-07-26T13:18:25.493Z,26.05
2022-07-26T13:20:52.264Z,26.12
2022-07-26T13:23:21.624Z,26.11
2022-07-26T13:25:49.712Z,25.82
2022-07-26T13:28:17.281Z,26.24
2022-07-26T13:30:45.328Z,25.88
2022-07-26T13:33:13.199Z,25.92
2022-07-26T13:35:42.433Z,26.30
2022-07-26T13:38:09.657Z,26.83
2022-07-26T13:40:36.491Z,26.17
2022-07-26T13:43:03.145Z,26.02
2022-07-26T13:45:29.934Z,26.13
2022-07-26T13:47:58.770Z,26.16
2022-07-26T13:50:29.358Z,26.53
2022-07-26T13:52:56.633Z,26.06
2022-07-26T13:55:24.324Z,26.38
2022-07-26T13:57:56.911Z,25.89
2022-07-26T14:00:26.944Z,25.72
2022-07-26T14:02:55.282Z,25.82
2022-07-26T14:05:22.113Z,25.93
2022-07-26T14:07:48.974Z,26.06
2022-07-26T14:10:15.839Z,25.73
2022-07-26T14:12:42.665Z,25.83
2022-07-26T14:15:14.030Z,25.59
2022-07-26T14:17:48.876Z,25.88
2022-07-26T14:20:17.196Z,25.81
2022-07-26T14:22:44.597Z,25.68
2022-07-26T14:25:11.815Z,25.79
2022-07-26T14:27:38.931Z,25.31
2022-07-26T14:30:06.570Z,24.87
2022-07-26T14:32:33.702Z,24.93
2022-07-26T14:35:00.411Z,24.51
2022-07-26T14:37:42.412Z,25.26
2022-07-26T14:40:13.182Z,25.57
2022-07-26T14:42:40.076Z,24.99
2022-07-26T14:45:07.857Z,25.77
2022-07-26T14:47:34.559Z,26.27
2022-07-26T14:50:06.015Z,26.16
2022-07-26T14:52:33.463Z,26.04
2022-07-26T14:55:00.154Z,25.51
2022-07-26T14:57:26.829Z,25.00
2022-07-26T14:59:53.607Z,25.34
2022-07-26T15:02:20.433Z,25.21
2022-07-26T15:04:47.244Z,25.27
2022-07-26T15:07:13.929Z,25.18
2022-07-26T15:09:40.755Z,25.43
2022-07-26T15:12:07.922Z,25.18
2022-07-26T15:14:36.235Z,24.76
2022-07-26T15:17:03.401Z,24.70
2022-07-26T15:19:30.148Z,25.09
2022-07-26T15:21:57.105Z,25.41
2022-07-26T15:24:24.454Z,25.38
2022-07-26T15:26:51.250Z,25.34
2022-07-26T15:29:17.992Z,25.22
2022-07-26T15:31:44.807Z,24.82
2022-07-26T15:34:11.921Z,25.27
2022-07-26T15:36:38.876Z,24.75
2022-07-26T15:39:16.655Z,24.99
2022-07-26T15:41:45.440Z,24.91
2022-07-26T15:44:12.673Z,24.69
2022-07-26T15:46:39.897Z,24.85
2022-07-26T15:49:07.963Z,24.75
2022-07-26T15:51:34.669Z,25.06
2022-07-26T15:54:02.896Z,24.59
2022-07-26T15:56:29.673Z,24.64
2022-07-26T15:58:56.468Z,24.22
2022-07-26T16:01:23.304Z,24.64
2022-07-26T16:03:50.517Z,24.42
2022-07-26T16:06:17.353Z,24.31
2022-07-26T16:09:13.550Z,24.69
2022-07-26T16:11:31.930Z,24.65
2022-07-26T16:14:01.175Z,24.31
2022-07-26T16:16:29.892Z,24.05
2022-07-26T16:18:56.976Z,24.62
2022-07-26T16:21:23.953Z,24.32
2022-07-26T16:23:51.070Z,24.33
2022-07-26T16:26:18.419Z,24.70
2022-07-26T16:28:45.543Z,24.55
2022-07-26T16:31:12.580Z,23.83
2022-07-26T16:33:46.381Z,24.53
2022-07-26T16:36:14.304Z,24.55
2022-07-26T16:38:41.038Z,24.69
2022-07-26T16:41:07.920Z,24.65
2022-07-26T16:43:35.429Z,24.47
2022-07-26T16:46:02.336Z,24.51
2022-07-26T16:48:29.158Z,24.23
2022-07-26T16:50:55.947Z,23.85
2022-07-26T16:53:22.663Z,24.09
2022-07-26T16:55:51.823Z,23.84
2022-07-26T16:58:19.238Z,24.17
2022-07-26T17:00:46.274Z,23.96
2022-07-26T17:03:17.016Z,23.95
2022-07-26T17:05:45.916Z,23.65
2022-07-26T17:08:13.259Z,24.18
2022-07-26T17:11:07.226Z,23.97
2022-07-26T17:27:56.790Z,24.23
2022-07-26T17:54:51.173Z,23.60
2022-07-26T17:57:18.005Z,23.95
2022-07-26T17:59:45.004Z,23.33
2022-07-26T18:02:12.067Z,23.71
2022-07-26T18:04:38.987Z,23.73
2022-07-26T18:07:05.836Z,23.70
2022-07-26T18:09:32.799Z,23.75
2022-07-26T18:11:59.747Z,22.79
2022-07-26T18:14:26.548Z,23.32
2022-07-26T18:16:54.441Z,22.87
2022-07-26T18:19:21.885Z,23.34
2022-07-26T18:21:49.137Z,23.61
2022-07-26T18:24:17.570Z,23.72
2022-07-26T18:26:44.515Z,23.11
2022-07-26T18:29:11.778Z,23.42
2022-07-26T18:31:38.815Z,23.52
2022-07-26T18:34:06.712Z,23.34
2022-07-26T18:36:34.461Z,23.35
2022-07-26T18:39:01.191Z,23.62
2022-07-26T18:41:30.460Z,23.05
2022-07-26T18:43:59.473Z,23.12
2022-07-26T18:46:26.422Z,23.25
2022-07-26T18:48:53.384Z,23.28
2022-07-26T18:51:22.132Z,23.52
2022-07-26T18:53:53.944Z,22.65
2022-07-26T18:56:21.192Z,23.33
2022-07-26T18:58:50.566Z,23.21
2022-07-26T19:01:17.677Z,23.16
2022-07-26T19:03:44.851Z,23.39
2022-07-26T19:06:13.131Z,23.09
2022-07-26T19:08:40.219Z,22.80
2022-07-26T19:11:07.148Z,23.21
2022-07-26T19:13:34.243Z,22.81
2022-07-26T19:16:01.015Z,22.70
2022-07-26T19:18:28.026Z,21.65
2022-07-26T19:20:54.866Z,21.22
2022-07-26T19:23:21.871Z,21.10
2022-07-26T19:25:48.736Z,20.98
2022-07-26T19:28:15.671Z,20.80
2022-07-26T19:30:43.276Z,21.27
2022-07-26T19:33:10.280Z,21.30
2022-07-26T19:35:37.126Z,21.04
2022-07-26T19:38:04.511Z,20.78
2022-07-26T19:40:31.429Z,21.03
2022-07-26T19:42:58.178Z,21.22
2022-07-26T19:45:24.911Z,20.78
2022-07-26T19:47:51.861Z,20.93
2022-07-26T19:50:18.827Z,20.76
2022-07-26T19:52:45.642Z,20.54
2022-07-26T19:55:12.482Z,20.25
2022-07-26T19:57:39.317Z,20.02
2022-07-26T20:00:07.862Z,20.01
2022-07-26T20:02:41.292Z,20.42
2022-07-26T20:05:10.148Z,20.25
2022-07-26T20:07:37.977Z,20.26
2022-07-26T20:10:06.176Z,20.31
2022-07-26T20:12:37.304Z,20.56
2022-07-26T20:15:05.928Z,20.66
2022-07-26T20:17:35.583Z,20.57
2022-07-26T20:20:05.615Z,20.49
2022-07-26T20:22:32.493Z,20.40
2022-07-26T20:24:59.416Z,20.62
2022-07-26T20:27:26.192Z,20.63
2022-07-26T20:29:57.420Z,20.42
2022-07-26T20:32:27.461Z,20.50
2022-07-26T20:34:54.153Z,20.43
2022-07-26T20:37:21.077Z,20.68
2022-07-26T20:39:47.778Z,20.37
2022-07-26T20:42:18.938Z,20.62
2022-07-26T20:44:48.841Z,20.73
2022-07-26T20:47:15.862Z,20.53
2022-07-26T20:49:42.551Z,20.66
2022-07-26T20:52:09.497Z,20.20
2022-07-26T20:54:36.646Z,19.99
2022-07-26T20:57:04.419Z,19.80
2022-07-26T20:59:32.824Z,19.75
2022-07-26T21:01:59.726Z,19.67
2022-07-26T21:04:26.860Z,19.67
2022-07-26T21:06:53.762Z,19.35
2022-07-26T21:09:20.657Z,19.57
2022-07-26T21:11:47.440Z,19.14
2022-07-26T21:14:14.177Z,19.30
2022-07-26T21:16:40.957Z,19.37
2022-07-26T21:19:08.047Z,19.12
2022-07-26T21:21:36.972Z,19.28
2022-07-26T21:24:07.635Z,19.26
2022-07-26T21:26:34.842Z,19.05
2022-07-26T21:29:01.952Z,19.03
2022-07-26T21:31:29.574Z,19.21
2022-07-26T21:33:56.369Z,19.07
2022-07-26T21:36:25.725Z,19.21
2022-07-26T21:38:52.564Z,19.31
2022-07-26T21:41:19.561Z,19.12
2022-07-26T21:43:48.945Z,19.35
2022-07-26T21:46:15.657Z,19.23
2022-07-26T21:48:42.680Z,19.39
2022-07-26T21:51:11.878Z,19.42
2022-07-26T21:53:38.628Z,19.39
2022-07-26T21:56:05.755Z,19.78
2022-07-26T21:58:36.281Z,19.99
2022-07-26T22:01:10.940Z,20.22
2022-07-26T22:03:38.509Z,19.98
2022-07-26T22:06:06.731Z,20.12
2022-07-26T22:08:33.968Z,20.22
2022-07-26T22:11:00.986Z,20.28
2022-07-26T22:13:27.679Z,19.72
2022-07-26T22:15:54.396Z,19.55
2022-07-26T22:18:21.121Z,19.49
2022-07-26T22:20:49.166Z,19.77
2022-07-26T22:23:17.533Z,19.50
2022-07-26T22:25:44.695Z,19.46
2022-07-26T22:28:18.470Z,19.47
2022-07-26T22:30:45.999Z,19.61
2022-07-26T22:33:12.662Z,19.96
2022-07-26T22:35:39.361Z,19.63
2022-07-26T22:38:10.719Z,19.47
2022-07-26T22:40:39.985Z,19.38
2022-07-26T22:43:07.689Z,19.24
2022-07-26T22:45:34.673Z,19.43
2022-07-26T22:48:03.398Z,19.44
2022-07-26T22:50:30.375Z,19.56
2022-07-26T22:52:57.203Z,19.12
2022-07-26T22:55:24.144Z,18.81
2022-07-26T22:57:50.891Z,19.13
2022-07-26T23:00:19.455Z,18.88
2022-07-26T23:02:47.322Z,19.18
2022-07-26T23:05:16.091Z,19.22
2022-07-26T23:07:43.566Z,18.81
2022-07-26T23:10:14.589Z,18.67
2022-07-26T23:12:41.222Z,18.46
2022-07-26T23:15:09.894Z,18.56
2022-07-26T23:17:37.506Z,18.60
2022-07-26T23:20:06.164Z,18.58
2022-07-26T23:22:34.150Z,18.53
2022-07-26T23:25:00.810Z,18.52
2022-07-26T23:27:27.580Z,18.62
2022-07-26T23:29:54.272Z,18.60
2022-07-26T23:32:21.021Z,18.14
2022-07-26T23:34:47.699Z,18.38
2022-07-26T23:37:14.548Z,18.02
2022-07-26T23:39:41.319Z,18.37
2022-07-26T23:42:08.215Z,18.28
2022-07-26T23:44:34.927Z,18.02
2022-07-26T23:47:02.106Z,17.88
2022-07-26T23:49:29.095Z,18.01
2022-07-26T23:51:55.821Z,17.85
2022-07-26T23:54:22.430Z,17.80
2022-07-26T23:56:49.131Z,17.72
2022-07-26T23:59:16.032Z,17.69
